Terminal Aerodrome Forecast
Issued by NWS Paducah, KY

Home | Current Version | Previous Version | Text Only | Print | Product List | Glossary On
Versions: 1 2 3 4 5 6 7 8 9 10 11 12 13 14 15 16 17 18 19
048
FTUS43 KPAH 200341 AAA
TAFEVV
TAF AMD
KEVV 200341Z 2004/2024 VRB03KT 1SM BR SCT005
     FM200900 VRB03KT 1/2SM FG VV002
     FM201500 14005KT P6SM BKN010
     FM201700 16007KT P6SM SCT200=

USA.gov is the U.S. government's official web portal to all federal, state and local government web resources and services.